Time;durP1;ratioP1;P1;durP2;ratioP2;P2;SDS_P1;SDS_P2;PMS_P1;PMS_P2;Temp;Humidity;BMP_temperature;BMP_pressure;BME280_temperature;BME280_humidity;BME280_pressure;Samples;Min_cycle;Max_cycle;Signal;HPM_P1;HPM_P2
2021/05/30 00:00:27;;;;;;;3.03;2.70;;;22.80;51.90;;;;;;5005678;28;20234;-78
2021/05/30 00:02:54;;;;;;;5.93;2.40;;;22.80;51.90;;;;;;4998694;28;20231;-78
2021/05/30 00:05:20;;;;;;;3.50;2.20;;;22.80;51.90;;;;;;4992713;28;20224;-78
2021/05/30 00:07:47;;;;;;;3.10;2.80;;;22.70;51.90;;;;;;4998282;28;20338;-78
2021/05/30 00:10:15;;;;;;;2.83;2.50;;;22.70;51.90;;;;;;4994622;28;20631;-80
2021/05/30 00:12:46;;;;;;;2.90;2.47;;;22.70;51.80;;;;;;4998825;28;20207;-78
2021/05/30 00:15:13;;;;;;;2.73;2.50;;;22.70;51.90;;;;;;5004563;28;20227;-78
2021/05/30 00:17:40;;;;;;;2.80;2.60;;;22.70;51.80;;;;;;5000629;28;20490;-78
2021/05/30 00:20:09;;;;;;;4.40;2.47;;;22.70;52.00;;;;;;5002643;28;20661;-78
2021/05/30 00:22:37;;;;;;;2.67;2.47;;;22.60;51.80;;;;;;4998949;28;20223;-79
2021/05/30 00:25:05;;;;;;;4.90;2.60;;;22.60;51.90;;;;;;5005605;28;20801;-81
2021/05/30 00:27:32;;;;;;;2.50;2.30;;;22.60;52.30;;;;;;5005262;28;20223;-81
2021/05/30 00:30:00;;;;;;;2.70;2.47;;;22.60;52.00;;;;;;5003494;28;20232;-81
2021/05/30 00:32:27;;;;;;;2.70;2.50;;;22.50;51.80;;;;;;5001438;28;20228;-80
2021/05/30 00:34:54;;;;;;;2.67;2.30;;;22.60;51.90;;;;;;4986824;28;20480;-80
2021/05/30 00:37:21;;;;;;;3.00;2.60;;;22.60;52.00;;;;;;5000989;28;20219;-80
2021/05/30 00:39:48;;;;;;;3.30;2.47;;;22.60;51.80;;;;;;5001070;28;20324;-80
2021/05/30 00:42:15;;;;;;;2.70;2.50;;;22.50;51.80;;;;;;5007520;28;20491;-79
2021/05/30 00:44:42;;;;;;;2.40;2.20;;;22.50;51.80;;;;;;5003336;28;20231;-80
2021/05/30 00:47:09;;;;;;;2.40;2.20;;;22.50;51.90;;;;;;5012701;28;20238;-79
2021/05/30 00:49:36;;;;;;;2.47;2.10;;;22.50;51.80;;;;;;4990406;28;20379;-79
2021/05/30 00:52:05;;;;;;;2.63;2.43;;;22.50;51.80;;;;;;5003035;28;20234;-78
2021/05/30 00:54:35;;;;;;;2.43;2.23;;;22.40;51.70;;;;;;5001657;28;20232;-79
2021/05/30 00:57:05;;;;;;;2.53;2.33;;;22.50;51.80;;;;;;4974152;28;20707;-79
2021/05/30 00:59:32;;;;;;;2.70;2.50;;;22.40;51.70;;;;;;4996435;28;20216;-79
2021/05/30 01:01:59;;;;;;;2.37;2.17;;;22.40;51.60;;;;;;4988101;28;20235;-79
2021/05/30 01:04:26;;;;;;;2.47;2.30;;;22.40;51.70;;;;;;4998953;28;20243;-78
2021/05/30 01:06:56;;;;;;;2.40;2.20;;;22.40;51.80;;;;;;5002549;28;20708;-79
2021/05/30 01:09:25;;;;;;;2.60;2.40;;;22.40;51.80;;;;;;5001594;28;20384;-78
2021/05/30 01:11:53;;;;;;;2.40;2.20;;;22.40;51.70;;;;;;4986161;28;20729;-79
2021/05/30 01:14:20;;;;;;;2.20;2.10;;;22.40;51.60;;;;;;4988283;28;20227;-79
2021/05/30 01:16:47;;;;;;;5.00;2.63;;;22.40;51.60;;;;;;4998877;28;20216;-79
2021/05/30 01:19:16;;;;;;;2.30;2.10;;;22.30;51.70;;;;;;4988454;28;20232;-79
2021/05/30 01:21:46;;;;;;;2.40;2.20;;;22.30;51.60;;;;;;4998767;28;20737;-78
2021/05/30 01:24:14;;;;;;;2.30;2.20;;;22.30;51.60;;;;;;5002593;28;20224;-79
2021/05/30 01:26:41;;;;;;;2.23;2.10;;;22.30;51.70;;;;;;4999932;28;20228;-79
2021/05/30 01:29:08;;;;;;;2.10;2.00;;;22.30;51.60;;;;;;4990455;28;20302;-80
2021/05/30 01:31:35;;;;;;;2.27;2.07;;;22.30;51.60;;;;;;4980776;28;20228;-80
2021/05/30 01:34:03;;;;;;;2.33;2.13;;;22.30;51.70;;;;;;4989396;28;20717;-80
2021/05/30 01:36:31;;;;;;;2.37;2.17;;;22.30;51.70;;;;;;5001406;28;20523;-80
2021/05/30 01:38:58;;;;;;;2.30;2.10;;;22.30;51.70;;;;;;5003701;28;20228;-80
2021/05/30 01:41:25;;;;;;;2.60;2.40;;;22.20;51.60;;;;;;5002227;28;20238;-78
2021/05/30 01:43:52;;;;;;;2.27;2.07;;;22.20;51.70;;;;;;5002977;28;20231;-78
2021/05/30 01:46:18;;;;;;;2.23;2.03;;;22.20;51.70;;;;;;4985508;28;20235;-77
2021/05/30 01:48:45;;;;;;;2.33;2.20;;;22.20;51.70;;;;;;4982937;28;20289;-77
2021/05/30 01:51:12;;;;;;;2.50;2.20;;;22.20;51.70;;;;;;5007876;28;20223;-77
2021/05/30 01:59:04;;;;;;;2.17;1.97;;;22.10;51.70;;;;;;4995680;28;20249;-78
2021/05/30 02:01:32;;;;;;;2.50;2.30;;;22.20;51.70;;;;;;4989137;28;20318;-78
2021/05/30 02:04:02;;;;;;;2.40;2.20;;;22.10;51.70;;;;;;4992357;28;20259;-78
2021/05/30 02:06:30;;;;;;;2.20;2.00;;;22.10;51.60;;;;;;4992643;28;20224;-78
2021/05/30 02:08:58;;;;;;;2.20;2.00;;;22.10;51.70;;;;;;4987107;28;20234;-78
2021/05/30 02:11:26;;;;;;;2.33;2.13;;;22.10;51.60;;;;;;4994218;28;20703;-77
2021/05/30 02:13:53;;;;;;;2.53;2.30;;;22.10;51.70;;;;;;4997971;28;20533;-78
2021/05/30 02:16:20;;;;;;;2.33;2.13;;;22.10;51.60;;;;;;5000183;28;20333;-78
2021/05/30 02:18:47;;;;;;;2.30;2.10;;;22.10;51.70;;;;;;5001516;28;20871;-78
2021/05/30 02:21:14;;;;;;;2.40;2.20;;;22.10;51.60;;;;;;5001816;28;20599;-79
2021/05/30 02:23:41;;;;;;;2.37;2.17;;;22.10;51.70;;;;;;4989132;28;20231;-78
2021/05/30 02:26:08;;;;;;;2.20;2.10;;;22.10;51.70;;;;;;5001562;28;20227;-79
2021/05/30 02:28:34;;;;;;;2.30;2.10;;;22.10;51.70;;;;;;5005593;28;20226;-79
2021/05/30 02:31:01;;;;;;;2.37;1.90;;;22.10;51.70;;;;;;4997816;28;20227;-79
2021/05/30 02:33:38;;;;;;;2.57;2.37;;;22.10;51.70;;;;;;4991530;28;20230;-79
2021/05/30 02:36:05;;;;;;;2.67;2.47;;;22.00;51.60;;;;;;5002617;28;20242;-79
2021/05/30 02:38:32;;;;;;;2.17;1.97;;;22.00;51.70;;;;;;5003001;28;20227;-79
2021/05/30 02:40:59;;;;;;;2.50;2.30;;;22.00;51.60;;;;;;5002747;28;20231;-79
2021/05/30 02:43:25;;;;;;;2.30;2.10;;;22.00;51.70;;;;;;4998555;28;20227;-79
2021/05/30 02:45:52;;;;;;;3.90;2.37;;;22.00;51.60;;;;;;4988762;28;20238;-79
2021/05/30 02:48:19;;;;;;;2.60;2.40;;;22.00;51.60;;;;;;4989408;28;20228;-79
2021/05/30 02:50:57;;;;;;;2.27;2.07;;;22.00;51.70;;;;;;5003851;28;20230;-80
2021/05/30 02:53:27;;;;;;;2.20;2.00;;;22.00;51.70;;;;;;5004920;28;20227;-80
2021/05/30 02:55:55;;;;;;;2.20;2.00;;;22.00;51.70;;;;;;5007483;28;20227;-79
2021/05/30 02:58:23;;;;;;;2.47;2.27;;;21.90;51.60;;;;;;4996813;28;20220;-78
2021/05/30 03:00:53;;;;;;;2.60;2.13;;;21.90;51.60;;;;;;4993502;28;20230;-79
2021/05/30 03:03:19;;;;;;;2.40;2.20;;;21.90;51.70;;;;;;4971121;28;20228;-79
2021/05/30 03:05:46;;;;;;;2.47;2.20;;;21.90;51.60;;;;;;5006015;28;20223;-78
2021/05/30 03:08:13;;;;;;;2.40;2.20;;;21.90;51.70;;;;;;4991168;28;20223;-79
2021/05/30 03:10:41;;;;;;;2.40;1.90;;;21.90;51.70;;;;;;5006447;28;20687;-79
2021/05/30 03:13:08;;;;;;;2.10;1.90;;;21.90;51.60;;;;;;5008085;28;20226;-80
2021/05/30 03:15:35;;;;;;;2.27;2.07;;;21.90;51.70;;;;;;5008365;28;20223;-80
2021/05/30 03:18:02;;;;;;;2.60;2.40;;;21.90;51.60;;;;;;4989970;28;20219;-79
2021/05/30 03:20:29;;;;;;;2.13;1.93;;;21.90;51.70;;;;;;5004217;28;20224;-79
2021/05/30 03:22:56;;;;;;;2.47;2.27;;;21.80;51.60;;;;;;5005430;28;20556;-80
2021/05/30 03:25:23;;;;;;;2.37;2.17;;;21.80;51.60;;;;;;5006246;28;20298;-80
2021/05/30 03:27:50;;;;;;;2.90;2.53;;;21.90;51.70;;;;;;5006685;28;20219;-79
2021/05/30 03:30:17;;;;;;;2.30;2.10;;;21.80;51.60;;;;;;5003769;28;20646;-79
2021/05/30 03:32:44;;;;;;;2.40;2.20;;;21.80;51.60;;;;;;4987829;28;20600;-79
2021/05/30 03:35:11;;;;;;;2.40;2.20;;;21.80;52.20;;;;;;5003594;28;20878;-79
2021/05/30 03:37:38;;;;;;;2.27;2.17;;;21.80;51.60;;;;;;5004926;28;20231;-79
2021/05/30 03:40:25;;;;;;;2.33;2.13;;;21.80;51.70;;;;;;5004258;28;20223;-79
2021/05/30 03:42:53;;;;;;;2.50;2.30;;;21.80;51.60;;;;;;4991790;28;20242;-79
2021/05/30 03:45:21;;;;;;;2.33;2.13;;;21.70;51.60;;;;;;4997741;28;20647;-79
2021/05/30 03:47:48;;;;;;;2.50;2.30;;;21.80;51.70;;;;;;5004553;28;20223;-80
2021/05/30 03:50:19;;;;;;;2.30;2.10;;;21.80;51.70;;;;;;5001009;28;20261;-80
2021/05/30 03:52:46;;;;;;;2.40;2.20;;;21.80;51.70;;;;;;5004939;28;20239;-80
2021/05/30 03:55:14;;;;;;;2.20;2.00;;;21.70;51.60;;;;;;5005339;28;20238;-80
2021/05/30 03:57:41;;;;;;;2.50;2.30;;;21.70;51.70;;;;;;5002117;28;20900;-79
2021/05/30 04:00:18;;;;;;;2.27;2.10;;;21.70;51.70;;;;;;5002857;28;20242;-80
2021/05/30 04:02:46;;;;;;;2.60;2.40;;;21.70;51.70;;;;;;5001107;28;21335;-79
2021/05/30 04:05:15;;;;;;;2.27;2.07;;;21.70;51.70;;;;;;4996049;28;20307;-79
2021/05/30 04:07:43;;;;;;;1.90;1.80;;;21.70;51.70;;;;;;5004010;28;20239;-80
2021/05/30 04:10:12;;;;;;;2.47;2.27;;;21.70;51.80;;;;;;5006141;28;20282;-80
2021/05/30 04:12:40;;;;;;;2.30;2.10;;;21.70;51.70;;;;;;5003144;28;20224;-78
2021/05/30 04:15:09;;;;;;;2.37;2.00;;;21.70;51.70;;;;;;5006893;28;20698;-79
2021/05/30 04:17:37;;;;;;;2.60;2.40;;;21.70;51.70;;;;;;5000769;28;20228;-79
2021/05/30 04:20:07;;;;;;;2.13;2.03;;;21.70;51.80;;;;;;5005561;28;20931;-79
2021/05/30 04:22:37;;;;;;;2.37;2.17;;;21.70;51.70;;;;;;5004656;28;20235;-80
2021/05/30 04:25:05;;;;;;;2.50;2.30;;;21.60;51.70;;;;;;4982497;28;20471;-80
2021/05/30 04:27:32;;;;;;;2.63;2.43;;;21.60;51.70;;;;;;4991792;28;20231;-81
2021/05/30 04:29:59;;;;;;;2.57;2.37;;;21.60;51.70;;;;;;4987389;28;20739;-80
2021/05/30 04:32:31;;;;;;;2.60;2.40;;;21.70;51.80;;;;;;4985650;28;20259;-79
2021/05/30 04:34:58;;;;;;;2.13;2.03;;;21.70;51.70;;;;;;4973740;28;20767;-80
2021/05/30 04:37:24;;;;;;;2.17;2.03;;;21.60;51.70;;;;;;4979920;28;20229;-80
2021/05/30 04:39:51;;;;;;;2.33;2.23;;;21.60;51.70;;;;;;4979582;28;20235;-80
2021/05/30 04:42:18;;;;;;;3.87;3.50;;;21.60;51.60;;;;;;4987708;28;20224;-80
2021/05/30 04:44:46;;;;;;;3.60;3.30;;;21.70;51.50;;;;;;4988957;28;20231;-83
2021/05/30 04:47:13;;;;;;;4.90;3.90;;;21.60;51.30;;;;;;4988455;28;20231;-82
2021/05/30 04:49:40;;;;;;;4.40;3.43;;;21.60;51.20;;;;;;4985707;28;20216;-79
2021/05/30 04:52:09;;;;;;;5.57;4.43;;;21.60;51.30;;;;;;4987855;28;20244;-80
2021/05/30 04:54:37;;;;;;;4.90;4.37;;;21.60;51.10;;;;;;4974810;28;20220;-79
2021/05/30 04:57:04;;;;;;;4.67;4.27;;;21.70;51.60;;;;;;4986402;28;20234;-79
2021/05/30 04:59:31;;;;;;;4.53;4.13;;;21.60;51.00;;;;;;4983663;28;20231;-79
2021/05/30 05:01:58;;;;;;;7.17;5.27;;;21.70;50.80;;;;;;4980163;28;20224;-81
2021/05/30 05:04:25;;;;;;;5.30;4.80;;;21.70;50.60;;;;;;4977530;28;20540;-79
2021/05/30 05:06:52;;;;;;;5.37;4.80;;;21.60;50.50;;;;;;4982043;28;20234;-80
2021/05/30 05:09:19;;;;;;;4.87;4.37;;;21.70;50.40;;;;;;4983148;28;20224;-80
2021/05/30 05:11:45;;;;;;;6.37;5.20;;;21.70;50.50;;;;;;4984606;28;20227;-80
2021/05/30 05:14:12;;;;;;;5.33;4.83;;;21.70;50.20;;;;;;4987560;28;20251;-82
2021/05/30 05:16:41;;;;;;;5.20;4.70;;;21.70;50.30;;;;;;4972390;28;20529;-81
2021/05/30 05:19:08;;;;;;;5.00;4.60;;;21.70;50.30;;;;;;4985167;28;20239;-82
2021/05/30 05:21:34;;;;;;;4.60;4.20;;;21.70;50.20;;;;;;4993825;28;20230;-81
2021/05/30 05:24:01;;;;;;;5.37;4.97;;;21.80;50.10;;;;;;4984101;28;20223;-82
2021/05/30 05:26:28;;;;;;;5.47;5.07;;;21.70;50.00;;;;;;4994388;28;20278;-80
2021/05/30 05:28:57;;;;;;;5.60;4.90;;;21.80;49.90;;;;;;5004829;28;20228;-82
2021/05/30 05:31:24;;;;;;;5.63;5.13;;;21.80;49.80;;;;;;4999472;28;20243;-82
2021/05/30 05:33:51;;;;;;;4.97;4.57;;;21.80;49.90;;;;;;5008321;28;20251;-81
2021/05/30 05:36:21;;;;;;;5.43;4.83;;;21.80;49.90;;;;;;5010299;28;20277;-82
2021/05/30 05:38:50;;;;;;;5.10;4.70;;;21.80;49.70;;;;;;5004802;28;20216;-80
2021/05/30 05:41:16;;;;;;;5.40;4.90;;;21.80;49.70;;;;;;5007376;28;20227;-86
2021/05/30 05:43:43;;;;;;;6.57;5.90;;;21.80;49.50;;;;;;5007040;28;20723;-83
2021/05/30 05:46:11;;;;;;;5.73;4.77;;;21.90;49.70;;;;;;5008301;28;20307;-88
2021/05/30 05:48:38;;;;;;;5.67;5.17;;;21.80;49.70;;;;;;4987412;28;20236;-85
2021/05/30 05:51:05;;;;;;;5.27;4.87;;;21.90;49.60;;;;;;5008691;28;20223;-85
2021/05/30 05:53:32;;;;;;;5.53;5.03;;;21.90;49.60;;;;;;5006833;28;20220;-85
2021/05/30 05:55:59;;;;;;;5.73;5.23;;;21.90;49.50;;;;;;4992279;28;20223;-86
2021/05/30 05:58:26;;;;;;;5.87;5.33;;;22.00;49.50;;;;;;5000460;28;20765;-85
2021/05/30 06:00:53;;;;;;;6.00;5.40;;;21.90;49.40;;;;;;4991277;28;20235;-84
2021/05/30 06:03:25;;;;;;;6.00;5.40;;;21.90;49.30;;;;;;4999990;28;20280;-82
2021/05/30 06:05:51;;;;;;;5.30;4.90;;;22.00;49.40;;;;;;4997034;28;20238;-82
2021/05/30 06:08:18;;;;;;;5.10;4.67;;;22.00;49.30;;;;;;5004541;28;20223;-82
2021/05/30 06:10:45;;;;;;;8.70;5.47;;;22.00;49.30;;;;;;4996725;28;20227;-82
2021/05/30 06:13:12;;;;;;;6.40;5.80;;;22.00;49.40;;;;;;5007040;28;20248;-80
2021/05/30 06:15:40;;;;;;;7.37;5.80;;;22.00;49.30;;;;;;5000940;28;20330;-79
2021/05/30 06:18:13;;;;;;;6.40;5.90;;;22.00;49.30;;;;;;4989795;28;20236;-79
2021/05/30 06:20:41;;;;;;;6.30;5.80;;;21.90;49.20;;;;;;5005986;28;20239;-79
2021/05/30 06:23:14;;;;;;;7.17;5.83;;;21.90;49.20;;;;;;5000606;28;21196;-80
2021/05/30 06:25:44;;;;;;;6.30;5.70;;;21.90;49.30;;;;;;5003745;28;20308;-78
2021/05/30 06:28:11;;;;;;;6.00;5.40;;;21.80;49.30;;;;;;4999128;28;20255;-79
2021/05/30 06:30:42;;;;;;;7.47;6.20;;;21.80;49.30;;;;;;5002766;28;20230;-79
2021/05/30 06:33:10;;;;;;;7.43;5.90;;;21.80;49.30;;;;;;5003020;28;20231;-79
2021/05/30 06:35:39;;;;;;;6.50;5.90;;;21.80;49.40;;;;;;5011539;28;20223;-80
2021/05/30 06:38:08;;;;;;;7.57;6.23;;;21.80;49.50;;;;;;5002482;28;20242;-80
2021/05/30 06:40:34;;;;;;;6.63;5.97;;;21.80;49.50;;;;;;4998383;28;20227;-81
2021/05/30 06:43:02;;;;;;;7.17;6.57;;;21.80;49.60;;;;;;5009365;28;20227;-80
2021/05/30 06:45:28;;;;;;;7.40;6.70;;;21.80;49.60;;;;;;5007041;28;20211;-80
2021/05/30 06:47:56;;;;;;;7.07;6.50;;;21.70;49.60;;;;;;5001908;28;20576;-80
2021/05/30 06:50:24;;;;;;;8.30;7.40;;;21.70;49.70;;;;;;5007464;28;20827;-79
2021/05/30 06:52:51;;;;;;;8.90;7.77;;;21.70;49.60;;;;;;5003610;28;20321;-81
2021/05/30 06:55:20;;;;;;;7.37;6.67;;;21.80;49.70;;;;;;4998304;28;20326;-80
2021/05/30 06:57:47;;;;;;;7.67;6.43;;;21.70;49.80;;;;;;5005711;28;20231;-80
2021/05/30 07:00:15;;;;;;;7.23;6.57;;;21.70;49.90;;;;;;5004980;28;20237;-80
2021/05/30 07:02:42;;;;;;;7.67;6.97;;;21.70;49.90;;;;;;5001738;28;20207;-76
2021/05/30 07:05:10;;;;;;;9.13;8.00;;;21.70;50.00;;;;;;4993914;28;20219;-79
2021/05/30 07:07:37;;;;;;;10.03;9.20;;;21.70;49.80;;;;;;5000377;28;20236;-80
2021/05/30 07:10:05;;;;;;;12.33;11.00;;;21.70;49.80;;;;;;5000157;28;20223;-81
2021/05/30 07:12:32;;;;;;;12.10;10.90;;;21.60;49.70;;;;;;5002474;28;20219;-79
2021/05/30 07:14:59;;;;;;;12.20;11.10;;;21.70;49.70;;;;;;4984883;28;20230;-77
2021/05/30 07:17:27;;;;;;;12.33;11.00;;;21.70;49.60;;;;;;5005038;28;20289;-80
2021/05/30 07:19:57;;;;;;;14.47;10.87;;;21.70;49.90;;;;;;5005660;28;20231;-79
2021/05/30 07:22:27;;;;;;;19.77;12.90;;;21.70;50.30;;;;;;5000988;28;20222;-78
2021/05/30 07:24:54;;;;;;;41.47;16.33;;;21.70;51.10;;;;;;4999285;28;20219;-78
2021/05/30 07:27:21;;;;;;;26.90;15.00;;;21.70;52.20;;;;;;4999319;28;20234;-76
2021/05/30 07:29:47;;;;;;;19.20;14.20;;;21.70;51.90;;;;;;4998220;28;20227;-76
2021/05/30 07:32:14;;;;;;;21.57;13.37;;;21.70;51.30;;;;;;4987600;28;20235;-76
2021/05/30 07:34:41;;;;;;;20.30;13.30;;;21.70;51.00;;;;;;5005311;28;20219;-77
2021/05/30 07:37:08;;;;;;;15.70;12.27;;;21.60;50.90;;;;;;4988003;28;20231;-79
2021/05/30 07:39:35;;;;;;;14.13;11.70;;;21.60;50.70;;;;;;5005477;28;20734;-80
2021/05/30 07:42:05;;;;;;;13.87;11.90;;;21.70;50.50;;;;;;5006531;28;20219;-79
2021/05/30 07:44:32;;;;;;;15.53;12.17;;;21.60;50.50;;;;;;5005104;28;20228;-79
2021/05/30 07:47:04;;;;;;;16.37;10.60;;;21.60;50.80;;;;;;5007027;28;20247;-78
2021/05/30 07:49:31;;;;;;;13.97;11.60;;;21.60;50.70;;;;;;5008005;28;20230;-81
2021/05/30 07:51:59;;;;;;;13.87;11.83;;;21.60;50.80;;;;;;4992961;28;20619;-81
2021/05/30 07:54:27;;;;;;;12.50;11.17;;;21.60;50.70;;;;;;5007491;28;20219;-80
2021/05/30 07:56:54;;;;;;;17.30;11.33;;;21.60;50.40;;;;;;5010593;28;20703;-81
2021/05/30 07:59:23;;;;;;;12.60;10.53;;;21.60;50.10;;;;;;5010734;28;20844;-82
2021/05/30 08:01:51;;;;;;;14.83;10.40;;;21.60;50.00;;;;;;5002035;28;20226;-79
2021/05/30 08:04:19;;;;;;;19.53;11.50;;;21.60;50.30;;;;;;5004424;28;20220;-82
2021/05/30 08:06:46;;;;;;;12.13;10.60;;;21.60;51.80;;;;;;5000489;28;20207;-81
2021/05/30 08:09:13;;;;;;;12.70;10.60;;;21.70;51.60;;;;;;5005537;28;20235;-80
2021/05/30 08:11:40;;;;;;;11.30;10.03;;;21.60;51.00;;;;;;5006400;28;20570;-81
2021/05/30 08:14:09;;;;;;;11.83;9.60;;;21.70;50.80;;;;;;5008524;28;20211;-81
2021/05/30 08:16:43;;;;;;;10.23;9.20;;;21.70;50.60;;;;;;4984055;28;20763;-82
2021/05/30 08:19:12;;;;;;;10.33;9.23;;;21.70;50.70;;;;;;5000582;28;20224;-81
2021/05/30 08:21:41;;;;;;;10.00;9.00;;;21.70;50.40;;;;;;5008115;28;20286;-80
2021/05/30 08:24:08;;;;;;;9.93;8.90;;;21.80;50.20;;;;;;5002359;28;20579;-80
2021/05/30 08:26:49;;;;;;;13.13;9.37;;;21.80;50.20;;;;;;5002277;28;20584;-79
2021/05/30 08:29:16;;;;;;;11.20;8.00;;;21.80;50.20;;;;;;4998029;28;20243;-78
2021/05/30 08:31:43;;;;;;;8.67;7.37;;;21.90;50.50;;;;;;4988360;28;20223;-80
2021/05/30 08:34:12;;;;;;;8.60;7.70;;;21.90;50.60;;;;;;5000102;28;20275;-80
2021/05/30 08:36:40;;;;;;;7.30;6.60;;;22.00;50.50;;;;;;4995551;28;20219;-80
2021/05/30 08:39:07;;;;;;;7.67;6.77;;;22.00;50.20;;;;;;5001040;28;20247;-80
2021/05/30 08:41:38;;;;;;;13.13;7.70;;;22.10;50.40;;;;;;5001628;28;20389;-79
2021/05/30 08:44:11;;;;;;;9.37;7.53;;;22.00;49.50;;;;;;5003736;28;20235;-79
2021/05/30 08:46:38;;;;;;;8.43;7.63;;;22.10;49.90;;;;;;4993039;28;20313;-78
2021/05/30 08:49:06;;;;;;;8.97;7.27;;;22.10;49.30;;;;;;4999406;28;20317;-78
2021/05/30 08:51:36;;;;;;;8.17;6.83;;;22.00;49.70;;;;;;4995569;28;20223;-79
2021/05/30 08:54:12;;;;;;;8.00;6.60;;;22.10;49.60;;;;;;5003524;28;20231;-79
2021/05/30 08:56:43;;;;;;;7.87;6.30;;;22.10;49.30;;;;;;5000757;28;20679;-78
2021/05/30 08:59:28;;;;;;;6.87;6.13;;;22.20;50.40;;;;;;4993378;28;20262;-78
2021/05/30 09:02:00;;;;;;;7.57;6.17;;;22.20;49.80;;;;;;4983233;28;20223;-80
2021/05/30 09:04:41;;;;;;;5.30;4.80;;;22.20;49.50;;;;;;5000059;28;20750;-79
2021/05/30 09:07:11;;;;;;;12.03;5.87;;;22.30;50.90;;;;;;4999317;28;20225;-82
2021/05/30 09:09:50;;;;;;;11.00;6.60;;;22.30;52.20;;;;;;5005927;28;20635;-81
2021/05/30 09:12:29;;;;;;;8.13;6.70;;;22.30;51.40;;;;;;5002742;28;20223;-84
2021/05/30 09:14:57;;;;;;;6.33;5.63;;;22.40;51.10;;;;;;5004316;28;20706;-85
2021/05/30 09:17:27;;;;;;;10.17;5.93;;;22.40;51.10;;;;;;4990363;28;20216;-86
2021/05/30 09:19:58;;;;;;;6.53;5.00;;;22.50;51.70;;;;;;4980122;28;20226;-84
2021/05/30 09:22:36;;;;;;;8.57;5.13;;;22.50;51.20;;;;;;5006607;28;20242;-83
2021/05/30 09:25:18;;;;;;;10.43;5.73;;;22.60;50.70;;;;;;4998980;28;20215;-77
2021/05/30 09:27:49;;;;;;;5.90;5.40;;;22.60;49.30;;;;;;4979112;28;20280;-82
2021/05/30 09:30:39;;;;;;;6.20;5.60;;;22.70;48.60;;;;;;4988980;28;20271;-83
2021/05/30 09:33:08;;;;;;;7.67;5.10;;;22.70;49.20;;;;;;4988151;28;20233;-85
2021/05/30 09:35:42;;;;;;;7.17;5.10;;;22.80;49.40;;;;;;4981513;28;20228;-90
2021/05/30 09:38:15;;;;;;;7.67;4.97;;;22.80;48.50;;;;;;4983423;28;20224;-76
2021/05/30 09:40:46;;;;;;;6.90;4.70;;;22.80;48.50;;;;;;4977767;28;21007;-76
2021/05/30 09:43:25;;;;;;;6.00;4.33;;;22.90;47.60;;;;;;4975882;28;20228;-77
2021/05/30 09:46:07;;;;;;;5.67;4.47;;;22.90;47.30;;;;;;4963678;28;20227;-76
2021/05/30 09:48:38;;;;;;;6.07;5.50;;;22.90;46.70;;;;;;4976594;28;20641;-74
2021/05/30 09:51:28;;;;;;;11.57;5.53;;;22.80;45.80;;;;;;4972921;28;20228;-75
2021/05/30 09:54:04;;;;;;;5.53;4.70;;;22.90;46.30;;;;;;4943864;28;20227;-74
2021/05/30 09:56:42;;;;;;;8.03;4.97;;;22.80;46.10;;;;;;4974448;28;20230;-75
2021/05/30 09:59:11;;;;;;;6.17;3.93;;;22.80;47.60;;;;;;4973478;28;20225;-75
2021/05/30 10:01:55;;;;;;;7.97;4.37;;;22.70;49.50;;;;;;4972831;28;20232;-78
2021/05/30 10:04:24;;;;;;;15.57;5.67;;;22.70;49.80;;;;;;4965211;28;20218;-77
2021/05/30 10:06:51;;;;;;;9.37;4.83;;;22.60;50.50;;;;;;4975915;28;20712;-75
2021/05/30 10:09:18;;;;;;;7.93;4.03;;;22.60;49.90;;;;;;4969232;28;20231;-75
2021/05/30 10:11:45;;;;;;;6.33;4.23;;;22.60;49.60;;;;;;4976839;28;20913;-76
2021/05/30 10:14:15;;;;;;;5.07;4.07;;;22.60;49.90;;;;;;4973628;28;20314;-76
2021/05/30 10:16:43;;;;;;;5.63;3.63;;;22.50;48.70;;;;;;4977452;28;20224;-76
2021/05/30 10:19:33;;;;;;;5.27;3.63;;;22.50;49.20;;;;;;4979721;28;20989;-76
2021/05/30 10:22:01;;;;;;;3.97;3.23;;;22.50;49.60;;;;;;4954501;28;20367;-75
2021/05/30 10:24:30;;;;;;;6.10;3.97;;;22.50;49.30;;;;;;4974519;28;21086;-76
2021/05/30 10:27:15;;;;;;;4.40;3.43;;;22.50;47.80;;;;;;4987545;28;20230;-75
2021/05/30 10:30:11;;;;;;;5.83;3.67;;;22.50;48.50;;;;;;4997401;28;20227;-75
2021/05/30 10:32:46;;;;;;;4.73;3.80;;;22.50;47.80;;;;;;4986502;28;20524;-74
2021/05/30 10:35:21;;;;;;;7.63;3.60;;;22.50;48.20;;;;;;4995398;28;21253;-77
2021/05/30 10:37:52;;;;;;;4.37;3.60;;;22.60;48.10;;;;;;4985324;28;20703;-75
2021/05/30 10:40:25;;;;;;;4.20;3.60;;;22.50;46.90;;;;;;4992649;28;20486;-75
2021/05/30 10:43:16;;;;;;;4.50;3.70;;;22.50;49.40;;;;;;4999866;28;20635;-75
2021/05/30 10:45:43;;;;;;;6.07;3.73;;;22.50;50.00;;;;;;4994840;28;20346;-75
2021/05/30 10:48:14;;;;;;;4.17;3.00;;;22.50;49.90;;;;;;4985840;28;21455;-75
2021/05/30 10:53:34;;;;;;;4.43;3.23;;;22.50;49.90;;;;;;4983100;28;20330;-75
2021/05/30 10:56:26;;;;;;;6.67;3.60;;;22.50;50.00;;;;;;4991279;28;20239;-75
2021/05/30 10:59:13;;;;;;;5.00;3.70;;;22.50;49.40;;;;;;4963300;28;20220;-76
2021/05/30 11:06:54;;;;;;;2.90;2.60;;;22.60;50.60;;;;;;4993281;28;20249;-81
2021/05/30 11:09:22;;;;;;;3.10;2.40;;;22.70;50.90;;;;;;5002228;28;20224;-79
2021/05/30 11:12:17;;;;;;;3.93;2.50;;;22.80;51.20;;;;;;5003950;28;20465;-79
2021/05/30 11:15:06;;;;;;;3.60;2.77;;;22.90;51.30;;;;;;5004579;28;20479;-79
2021/05/30 11:17:39;;;;;;;4.17;2.83;;;23.00;51.30;;;;;;5007773;28;20577;-86
2021/05/30 11:20:09;;;;;;;3.17;2.73;;;23.00;51.60;;;;;;4998284;28;20320;-84
2021/05/30 11:22:50;;;;;;;2.80;2.50;;;23.10;51.70;;;;;;5009676;28;20783;-80
2021/05/30 11:25:46;;;;;;;3.63;2.70;;;23.20;51.80;;;;;;5001401;28;20235;-80
2021/05/30 11:28:18;;;;;;;3.03;2.73;;;23.20;52.00;;;;;;5000932;28;20235;-81
2021/05/30 11:31:00;;;;;;;3.23;2.60;;;23.30;52.20;;;;;;4999421;28;21051;-82
2021/05/30 11:33:39;;;;;;;3.37;2.57;;;23.40;52.30;;;;;;5007930;28;20588;-82
2021/05/30 11:36:15;;;;;;;3.13;2.50;;;23.40;52.20;;;;;;5007793;28;20231;-77
2021/05/30 11:38:55;;;;;;;3.43;2.10;;;23.50;52.50;;;;;;5001005;28;20637;-78
2021/05/30 11:41:24;;;;;;;3.93;2.23;;;23.60;52.50;;;;;;4986415;28;21850;-77
2021/05/30 11:44:15;;;;;;;2.97;2.20;;;23.60;52.20;;;;;;5000925;28;20231;-77
2021/05/30 11:46:51;;;;;;;2.70;2.40;;;23.70;52.00;;;;;;4990334;28;20231;-82
2021/05/30 11:49:26;;;;;;;3.63;2.53;;;23.80;51.90;;;;;;4992593;28;20231;-78
2021/05/30 11:52:00;;;;;;;2.80;2.40;;;23.80;51.70;;;;;;5005618;28;20606;-81
2021/05/30 11:54:52;;;;;;;2.63;2.20;;;23.90;51.70;;;;;;5006842;28;20221;-79
2021/05/30 11:57:25;;;;;;;4.33;2.30;;;23.90;51.90;;;;;;4994381;28;20422;-77
2021/05/30 11:59:56;;;;;;;2.80;2.47;;;23.90;51.50;;;;;;4997055;28;20234;-80
2021/05/30 12:02:27;;;;;;;3.13;2.07;;;24.00;53.10;;;;;;5003987;28;20216;-80
2021/05/30 12:05:13;;;;;;;2.97;2.00;;;24.00;53.00;;;;;;5000926;28;20219;-79
2021/05/30 12:07:40;;;;;;;4.32;2.10;;;24.10;53.10;;;;;;5003251;28;20747;-77
2021/05/30 12:10:09;;;;;;;2.27;1.90;;;24.20;53.00;;;;;;4999523;28;20711;-77
2021/05/30 12:12:43;;;;;;;5.00;1.90;;;24.20;52.80;;;;;;5013734;28;20223;-82
2021/05/30 12:15:13;;;;;;;7.33;2.03;;;24.30;52.60;;;;;;5001444;28;20277;-79
2021/05/30 12:18:03;;;;;;;2.93;1.60;;;24.30;51.80;;;;;;5008044;28;20250;-79
2021/05/30 12:20:35;;;;;;;2.47;2.10;;;24.30;51.70;;;;;;4985575;28;20274;-77
2021/05/30 12:23:16;;;;;;;4.80;1.60;;;24.40;52.10;;;;;;5001927;28;20224;-81
2021/05/30 12:26:00;;;;;;;2.70;1.90;;;24.40;51.70;;;;;;4982045;28;20227;-86
2021/05/30 12:28:30;;;;;;;1.90;1.80;;;24.50;51.90;;;;;;4992689;28;21317;-82
2021/05/30 12:31:01;;;;;;;2.43;1.80;;;24.50;51.60;;;;;;4985309;28;20224;-80
2021/05/30 12:33:28;;;;;;;2.43;1.90;;;24.60;51.70;;;;;;4999892;28;20259;-81
2021/05/30 12:35:55;;;;;;;1.50;1.40;;;24.60;51.70;;;;;;5004294;28;20220;-81
2021/05/30 12:38:30;;;;;;;2.10;1.90;;;24.70;51.40;;;;;;4995991;28;20608;-80
2021/05/30 12:40:59;;;;;;;4.47;1.80;;;24.70;51.70;;;;;;5004311;28;20223;-80
2021/05/30 12:43:40;;;;;;;1.63;1.53;;;24.80;51.60;;;;;;5002652;28;20237;-81
2021/05/30 12:46:11;;;;;;;1.83;1.40;;;24.80;51.20;;;;;;5007738;28;20227;-85
2021/05/30 12:48:45;;;;;;;2.37;2.17;;;24.90;51.10;;;;;;5004435;28;20235;-83
2021/05/30 12:51:17;;;;;;;2.40;1.80;;;24.90;50.90;;;;;;5008362;28;20223;-85
2021/05/30 12:53:45;;;;;;;1.90;1.80;;;24.90;51.00;;;;;;5004080;28;20219;-83
2021/05/30 12:56:16;;;;;;;1.90;1.80;;;24.90;50.50;;;;;;5004848;28;20230;-81
2021/05/30 12:58:43;;;;;;;1.57;1.47;;;25.00;50.80;;;;;;5003093;28;20796;-80
2021/05/30 13:01:21;;;;;;;1.57;1.40;;;25.00;50.80;;;;;;5003440;28;21404;-82
2021/05/30 13:03:50;;;;;;;1.97;1.80;;;25.00;50.80;;;;;;5005143;28;20285;-81
2021/05/30 13:06:18;;;;;;;1.70;1.60;;;25.10;51.10;;;;;;5004286;28;20231;-84
2021/05/30 13:08:58;;;;;;;2.97;1.80;;;25.10;51.00;;;;;;5005459;28;20279;-83
2021/05/30 13:11:31;;;;;;;1.60;1.50;;;25.20;51.00;;;;;;5007141;28;20250;-82
2021/05/30 13:14:03;;;;;;;2.03;1.77;;;25.20;50.80;;;;;;4997038;28;20665;-82